sensor_id;sensor_type;location;lat;lon;timestamp;P1;durP1;ratioP1;P2;durP2;ratioP2
12768;SDS011;6448;48.916;8.990;2023-07-09T00:00:36;2.25;;;2.05;;
12768;SDS011;6448;48.916;8.990;2023-07-09T00:01:36;2.30;;;2.10;;
12768;SDS011;6448;48.916;8.990;2023-07-09T00:02:40;2.30;;;2.10;;
12768;SDS011;6448;48.916;8.990;2023-07-09T00:03:40;2.10;;;1.85;;
12768;SDS011;6448;48.916;8.990;2023-07-09T00:04:43;2.10;;;1.90;;
12768;SDS011;6448;48.916;8.990;2023-07-09T00:05:44;2.20;;;2.00;;
12768;SDS011;6448;48.916;8.990;2023-07-09T00:06:48;2.45;;;2.28;;
12768;SDS011;6448;48.916;8.990;2023-07-09T00:07:49;2.05;;;1.85;;
12768;SDS011;6448;48.916;8.990;2023-07-09T00:08:52;2.33;;;2.13;;
12768;SDS011;6448;48.916;8.990;2023-07-09T00:09:53;2.23;;;2.03;;
12768;SDS011;6448;48.916;8.990;2023-07-09T00:10:54;2.72;;;2.15;;
12768;SDS011;6448;48.916;8.990;2023-07-09T00:11:57;2.25;;;2.05;;
12768;SDS011;6448;48.916;8.990;2023-07-09T00:12:58;2.22;;;2.03;;
12768;SDS011;6448;48.916;8.990;2023-07-09T00:14:00;2.00;;;1.90;;
12768;SDS011;6448;48.916;8.990;2023-07-09T00:15:01;2.28;;;2.08;;
12768;SDS011;6448;48.916;8.990;2023-07-09T00:16:07;2.22;;;2.03;;
12768;SDS011;6448;48.916;8.990;2023-07-09T00:17:17;2.33;;;1.90;;
12768;SDS011;6448;48.916;8.990;2023-07-09T00:18:24;1.95;;;1.85;;
12768;SDS011;6448;48.916;8.990;2023-07-09T00:19:24;2.20;;;2.00;;
12768;SDS011;6448;48.916;8.990;2023-07-09T00:20:29;2.30;;;2.10;;
12768;SDS011;6448;48.916;8.990;2023-07-09T00:21:30;2.30;;;2.10;;
12768;SDS011;6448;48.916;8.990;2023-07-09T00:22:34;2.20;;;2.00;;
12768;SDS011;6448;48.916;8.990;2023-07-09T00:23:34;2.28;;;2.08;;
12768;SDS011;6448;48.916;8.990;2023-07-09T00:24:38;2.30;;;2.10;;
12768;SDS011;6448;48.916;8.990;2023-07-09T00:25:39;2.30;;;2.10;;
12768;SDS011;6448;48.916;8.990;2023-07-09T00:26:44;2.60;;;2.40;;
12768;SDS011;6448;48.916;8.990;2023-07-09T00:27:48;2.20;;;2.00;;
12768;SDS011;6448;48.916;8.990;2023-07-09T00:28:51;2.85;;;2.20;;
12768;SDS011;6448;48.916;8.990;2023-07-09T00:29:52;2.47;;;1.95;;
12768;SDS011;6448;48.916;8.990;2023-07-09T00:30:54;2.30;;;2.10;;
12768;SDS011;6448;48.916;8.990;2023-07-09T00:31:54;2.40;;;2.20;;
12768;SDS011;6448;48.916;8.990;2023-07-09T00:32:56;2.40;;;2.20;;
12768;SDS011;6448;48.916;8.990;2023-07-09T00:33:59;2.57;;;2.37;;
12768;SDS011;6448;48.916;8.990;2023-07-09T00:35:00;2.53;;;2.33;;
12768;SDS011;6448;48.916;8.990;2023-07-09T00:36:07;2.40;;;2.20;;
12768;SDS011;6448;48.916;8.990;2023-07-09T00:37:16;2.40;;;2.20;;
12768;SDS011;6448;48.916;8.990;2023-07-09T00:38:18;2.78;;;2.30;;
12768;SDS011;6448;48.916;8.990;2023-07-09T00:41:21;2.00;;;1.90;;
12768;SDS011;6448;48.916;8.990;2023-07-09T00:42:26;2.35;;;2.15;;
12768;SDS011;6448;48.916;8.990;2023-07-09T00:43:29;2.28;;;2.08;;
12768;SDS011;6448;48.916;8.990;2023-07-09T00:44:31;2.50;;;2.30;;
12768;SDS011;6448;48.916;8.990;2023-07-09T00:45:35;2.47;;;2.28;;
12768;SDS011;6448;48.916;8.990;2023-07-09T00:48:18;2.30;;;2.10;;
12768;SDS011;6448;48.916;8.990;2023-07-09T00:49:26;2.80;;;2.25;;
12768;SDS011;6448;48.916;8.990;2023-07-09T00:50:33;2.50;;;2.30;;
12768;SDS011;6448;48.916;8.990;2023-07-09T00:51:40;2.40;;;2.20;;
12768;SDS011;6448;48.916;8.990;2023-07-09T00:52:45;2.28;;;2.08;;
12768;SDS011;6448;48.916;8.990;2023-07-09T00:53:51;2.17;;;2.00;;
12768;SDS011;6448;48.916;8.990;2023-07-09T00:54:58;2.15;;;2.05;;
12768;SDS011;6448;48.916;8.990;2023-07-09T00:56:05;2.33;;;2.13;;
12768;SDS011;6448;48.916;8.990;2023-07-09T00:57:08;2.30;;;2.10;;
12768;SDS011;6448;48.916;8.990;2023-07-09T00:58:13;2.20;;;2.00;;
12768;SDS011;6448;48.916;8.990;2023-07-09T00:59:19;2.20;;;2.00;;
12768;SDS011;6448;48.916;8.990;2023-07-09T01:00:25;2.08;;;1.98;;
12768;SDS011;6448;48.916;8.990;2023-07-09T01:01:36;2.22;;;2.03;;
12768;SDS011;6448;48.916;8.990;2023-07-09T01:02:44;1.80;;;1.70;;
12768;SDS011;6448;48.916;8.990;2023-07-09T01:03:49;2.38;;;2.17;;
12768;SDS011;6448;48.916;8.990;2023-07-09T01:04:58;2.10;;;1.90;;
12768;SDS011;6448;48.916;8.990;2023-07-09T01:06:02;1.98;;;1.88;;
12768;SDS011;6448;48.916;8.990;2023-07-09T01:07:05;2.20;;;2.00;;
12768;SDS011;6448;48.916;8.990;2023-07-09T01:08:08;2.30;;;2.10;;
12768;SDS011;6448;48.916;8.990;2023-07-09T01:09:09;2.15;;;2.00;;
12768;SDS011;6448;48.916;8.990;2023-07-09T01:10:11;2.33;;;2.08;;
12768;SDS011;6448;48.916;8.990;2023-07-09T01:11:17;2.50;;;2.30;;
12768;SDS011;6448;48.916;8.990;2023-07-09T01:12:25;2.30;;;2.10;;
12768;SDS011;6448;48.916;8.990;2023-07-09T01:13:41;2.25;;;2.05;;
12768;SDS011;6448;48.916;8.990;2023-07-09T01:14:45;2.13;;;1.98;;
12768;SDS011;6448;48.916;8.990;2023-07-09T01:15:48;1.95;;;1.80;;
12768;SDS011;6448;48.916;8.990;2023-07-09T01:16:50;2.20;;;2.00;;
12768;SDS011;6448;48.916;8.990;2023-07-09T01:17:57;2.30;;;2.10;;
12768;SDS011;6448;48.916;8.990;2023-07-09T01:18:59;2.38;;;2.17;;
12768;SDS011;6448;48.916;8.990;2023-07-09T01:20:02;2.28;;;2.08;;
12768;SDS011;6448;48.916;8.990;2023-07-09T01:21:09;2.35;;;2.15;;
12768;SDS011;6448;48.916;8.990;2023-07-09T01:22:16;2.15;;;2.05;;
12768;SDS011;6448;48.916;8.990;2023-07-09T01:23:18;2.30;;;2.10;;
12768;SDS011;6448;48.916;8.990;2023-07-09T01:25:50;2.30;;;2.10;;
12768;SDS011;6448;48.916;8.990;2023-07-09T01:26:54;2.38;;;2.17;;
12768;SDS011;6448;48.916;8.990;2023-07-09T01:27:55;2.45;;;2.25;;
12768;SDS011;6448;48.916;8.990;2023-07-09T01:28:59;2.20;;;2.00;;
12768;SDS011;6448;48.916;8.990;2023-07-09T01:30:01;2.40;;;2.20;;
12768;SDS011;6448;48.916;8.990;2023-07-09T01:31:07;2.00;;;1.90;;
12768;SDS011;6448;48.916;8.990;2023-07-09T01:32:10;2.27;;;2.07;;
12768;SDS011;6448;48.916;8.990;2023-07-09T01:33:13;2.65;;;2.20;;
12768;SDS011;6448;48.916;8.990;2023-07-09T01:34:15;2.10;;;1.90;;
12768;SDS011;6448;48.916;8.990;2023-07-09T01:35:16;2.40;;;2.20;;
12768;SDS011;6448;48.916;8.990;2023-07-09T01:36:21;2.90;;;2.22;;
12768;SDS011;6448;48.916;8.990;2023-07-09T01:37:26;2.22;;;2.05;;
12768;SDS011;6448;48.916;8.990;2023-07-09T01:38:27;2.00;;;1.90;;
12768;SDS011;6448;48.916;8.990;2023-07-09T01:39:30;1.90;;;1.80;;
12768;SDS011;6448;48.916;8.990;2023-07-09T01:40:33;2.30;;;2.10;;
12768;SDS011;6448;48.916;8.990;2023-07-09T01:41:35;2.15;;;1.95;;
12768;SDS011;6448;48.916;8.990;2023-07-09T01:42:36;2.20;;;2.00;;
12768;SDS011;6448;48.916;8.990;2023-07-09T01:43:40;2.22;;;2.03;;
12768;SDS011;6448;48.916;8.990;2023-07-09T01:44:41;2.20;;;2.00;;
12768;SDS011;6448;48.916;8.990;2023-07-09T01:45:43;2.45;;;2.25;;
12768;SDS011;6448;48.916;8.990;2023-07-09T01:46:44;2.20;;;2.00;;
12768;SDS011;6448;48.916;8.990;2023-07-09T01:47:46;2.20;;;2.00;;
12768;SDS011;6448;48.916;8.990;2023-07-09T01:48:48;2.70;;;2.22;;
12768;SDS011;6448;48.916;8.990;2023-07-09T01:49:53;3.40;;;2.00;;
12768;SDS011;6448;48.916;8.990;2023-07-09T01:50:57;2.30;;;2.10;;
12768;SDS011;6448;48.916;8.990;2023-07-09T01:52:00;2.42;;;2.22;;
12768;SDS011;6448;48.916;8.990;2023-07-09T01:53:03;2.10;;;1.90;;
12768;SDS011;6448;48.916;8.990;2023-07-09T01:54:05;2.25;;;2.05;;
12768;SDS011;6448;48.916;8.990;2023-07-09T01:55:10;2.30;;;2.10;;
12768;SDS011;6448;48.916;8.990;2023-07-09T01:56:12;2.42;;;2.22;;
12768;SDS011;6448;48.916;8.990;2023-07-09T01:57:14;2.30;;;2.10;;
12768;SDS011;6448;48.916;8.990;2023-07-09T01:58:19;2.20;;;2.00;;
12768;SDS011;6448;48.916;8.990;2023-07-09T01:59:24;2.33;;;2.13;;
12768;SDS011;6448;48.916;8.990;2023-07-09T02:00:27;2.20;;;2.00;;
12768;SDS011;6448;48.916;8.990;2023-07-09T02:01:28;2.20;;;2.00;;
12768;SDS011;6448;48.916;8.990;2023-07-09T02:02:30;2.40;;;2.20;;
12768;SDS011;6448;48.916;8.990;2023-07-09T02:03:32;2.40;;;2.20;;
12768;SDS011;6448;48.916;8.990;2023-07-09T02:04:34;2.13;;;1.90;;
12768;SDS011;6448;48.916;8.990;2023-07-09T02:05:35;2.25;;;2.05;;
12768;SDS011;6448;48.916;8.990;2023-07-09T02:06:37;2.20;;;2.00;;
12768;SDS011;6448;48.916;8.990;2023-07-09T02:07:39;3.20;;;2.30;;
12768;SDS011;6448;48.916;8.990;2023-07-09T02:08:40;2.60;;;2.40;;
12768;SDS011;6448;48.916;8.990;2023-07-09T02:09:42;2.40;;;2.20;;
12768;SDS011;6448;48.916;8.990;2023-07-09T02:10:44;2.40;;;2.20;;
12768;SDS011;6448;48.916;8.990;2023-07-09T02:11:48;2.40;;;2.20;;
12768;SDS011;6448;48.916;8.990;2023-07-09T02:12:49;2.90;;;2.00;;
12768;SDS011;6448;48.916;8.990;2023-07-09T02:13:51;2.40;;;2.20;;
12768;SDS011;6448;48.916;8.990;2023-07-09T02:14:52;2.47;;;2.27;;
12768;SDS011;6448;48.916;8.990;2023-07-09T02:15:53;2.40;;;2.20;;
12768;SDS011;6448;48.916;8.990;2023-07-09T02:16:54;2.40;;;2.20;;
12768;SDS011;6448;48.916;8.990;2023-07-09T02:17:57;2.70;;;2.28;;
12768;SDS011;6448;48.916;8.990;2023-07-09T02:19:01;2.38;;;2.17;;
12768;SDS011;6448;48.916;8.990;2023-07-09T02:20:02;2.30;;;2.10;;
12768;SDS011;6448;48.916;8.990;2023-07-09T02:21:07;2.47;;;2.23;;
12768;SDS011;6448;48.916;8.990;2023-07-09T02:22:07;2.43;;;2.20;;
12768;SDS011;6448;48.916;8.990;2023-07-09T02:23:11;2.50;;;2.30;;
12768;SDS011;6448;48.916;8.990;2023-07-09T02:24:12;2.15;;;2.00;;
12768;SDS011;6448;48.916;8.990;2023-07-09T02:25:16;2.40;;;2.20;;
12768;SDS011;6448;48.916;8.990;2023-07-09T02:26:16;2.30;;;2.10;;
12768;SDS011;6448;48.916;8.990;2023-07-09T02:27:19;2.40;;;2.20;;
12768;SDS011;6448;48.916;8.990;2023-07-09T02:28:20;2.20;;;2.00;;
12768;SDS011;6448;48.916;8.990;2023-07-09T02:29:22;2.40;;;2.20;;
12768;SDS011;6448;48.916;8.990;2023-07-09T02:30:24;2.30;;;2.10;;
12768;SDS011;6448;48.916;8.990;2023-07-09T02:31:26;2.00;;;1.90;;
12768;SDS011;6448;48.916;8.990;2023-07-09T02:32:30;2.30;;;2.10;;
12768;SDS011;6448;48.916;8.990;2023-07-09T02:33:31;2.42;;;2.20;;
12768;SDS011;6448;48.916;8.990;2023-07-09T02:34:34;2.22;;;2.03;;
12768;SDS011;6448;48.916;8.990;2023-07-09T02:35:36;2.35;;;2.15;;
12768;SDS011;6448;48.916;8.990;2023-07-09T02:36:36;2.33;;;2.10;;
12768;SDS011;6448;48.916;8.990;2023-07-09T02:37:43;2.53;;;2.33;;
12768;SDS011;6448;48.916;8.990;2023-07-09T02:38:45;2.45;;;2.25;;
12768;SDS011;6448;48.916;8.990;2023-07-09T02:39:47;2.10;;;2.00;;
12768;SDS011;6448;48.916;8.990;2023-07-09T02:40:48;2.30;;;2.10;;
12768;SDS011;6448;48.916;8.990;2023-07-09T02:41:50;2.40;;;2.20;;
12768;SDS011;6448;48.916;8.990;2023-07-09T02:42:51;2.25;;;2.10;;
12768;SDS011;6448;48.916;8.990;2023-07-09T02:43:53;2.50;;;2.30;;
12768;SDS011;6448;48.916;8.990;2023-07-09T02:44:54;2.53;;;2.20;;
12768;SDS011;6448;48.916;8.990;2023-07-09T02:45:59;2.40;;;2.20;;
12768;SDS011;6448;48.916;8.990;2023-07-09T02:47:00;2.30;;;2.10;;
12768;SDS011;6448;48.916;8.990;2023-07-09T02:48:02;2.40;;;2.20;;
12768;SDS011;6448;48.916;8.990;2023-07-09T02:49:10;2.05;;;1.90;;
12768;SDS011;6448;48.916;8.990;2023-07-09T02:50:12;2.40;;;2.20;;
12768;SDS011;6448;48.916;8.990;2023-07-09T02:51:13;2.30;;;2.10;;
12768;SDS011;6448;48.916;8.990;2023-07-09T02:52:15;2.20;;;2.00;;
12768;SDS011;6448;48.916;8.990;2023-07-09T02:53:16;2.40;;;2.20;;
12768;SDS011;6448;48.916;8.990;2023-07-09T02:54:19;2.47;;;2.10;;
12768;SDS011;6448;48.916;8.990;2023-07-09T02:55:20;2.13;;;2.00;;
12768;SDS011;6448;48.916;8.990;2023-07-09T02:56:22;2.58;;;2.38;;
12768;SDS011;6448;48.916;8.990;2023-07-09T02:57:23;2.42;;;2.22;;
12768;SDS011;6448;48.916;8.990;2023-07-09T02:58:25;2.45;;;2.17;;
12768;SDS011;6448;48.916;8.990;2023-07-09T02:59:26;2.42;;;2.22;;
12768;SDS011;6448;48.916;8.990;2023-07-09T03:00:29;2.40;;;2.20;;
12768;SDS011;6448;48.916;8.990;2023-07-09T03:01:31;2.30;;;2.10;;
12768;SDS011;6448;48.916;8.990;2023-07-09T03:02:34;2.28;;;2.08;;
12768;SDS011;6448;48.916;8.990;2023-07-09T03:03:35;2.28;;;2.08;;
12768;SDS011;6448;48.916;8.990;2023-07-09T03:04:37;2.50;;;2.30;;
12768;SDS011;6448;48.916;8.990;2023-07-09T03:05:37;2.40;;;2.20;;
12768;SDS011;6448;48.916;8.990;2023-07-09T03:06:39;2.30;;;2.10;;
12768;SDS011;6448;48.916;8.990;2023-07-09T03:07:40;2.33;;;2.13;;
12768;SDS011;6448;48.916;8.990;2023-07-09T03:08:42;2.20;;;2.00;;
12768;SDS011;6448;48.916;8.990;2023-07-09T03:09:44;2.22;;;2.10;;
12768;SDS011;6448;48.916;8.990;2023-07-09T03:10:46;2.20;;;2.00;;
12768;SDS011;6448;48.916;8.990;2023-07-09T03:11:47;2.40;;;2.20;;
12768;SDS011;6448;48.916;8.990;2023-07-09T03:12:49;2.50;;;2.30;;
12768;SDS011;6448;48.916;8.990;2023-07-09T03:13:49;2.47;;;2.28;;
12768;SDS011;6448;48.916;8.990;2023-07-09T03:14:51;2.50;;;2.30;;
12768;SDS011;6448;48.916;8.990;2023-07-09T03:15:55;2.35;;;2.15;;
12768;SDS011;6448;48.916;8.990;2023-07-09T03:16:57;2.60;;;2.10;;
12768;SDS011;6448;48.916;8.990;2023-07-09T03:17:58;2.50;;;2.30;;
12768;SDS011;6448;48.916;8.990;2023-07-09T03:19:00;2.30;;;2.10;;
12768;SDS011;6448;48.916;8.990;2023-07-09T03:20:01;2.50;;;2.30;;
12768;SDS011;6448;48.916;8.990;2023-07-09T03:21:03;2.50;;;2.30;;
12768;SDS011;6448;48.916;8.990;2023-07-09T03:22:04;2.45;;;2.25;;
12768;SDS011;6448;48.916;8.990;2023-07-09T03:23:06;2.50;;;2.30;;
12768;SDS011;6448;48.916;8.990;2023-07-09T03:24:07;2.47;;;2.28;;
12768;SDS011;6448;48.916;8.990;2023-07-09T03:25:10;2.40;;;2.20;;
12768;SDS011;6448;48.916;8.990;2023-07-09T03:26:11;2.40;;;2.20;;
12768;SDS011;6448;48.916;8.990;2023-07-09T03:27:12;2.10;;;2.00;;
12768;SDS011;6448;48.916;8.990;2023-07-09T03:28:14;2.40;;;2.20;;
12768;SDS011;6448;48.916;8.990;2023-07-09T03:29:16;2.30;;;2.10;;
12768;SDS011;6448;48.916;8.990;2023-07-09T03:30:17;2.40;;;2.20;;
12768;SDS011;6448;48.916;8.990;2023-07-09T03:31:18;2.30;;;2.10;;
12768;SDS011;6448;48.916;8.990;2023-07-09T03:32:20;2.30;;;2.10;;
12768;SDS011;6448;48.916;8.990;2023-07-09T03:33:21;2.00;;;1.90;;
12768;SDS011;6448;48.916;8.990;2023-07-09T03:34:22;2.40;;;2.20;;
12768;SDS011;6448;48.916;8.990;2023-07-09T03:35:24;2.40;;;2.20;;
12768;SDS011;6448;48.916;8.990;2023-07-09T03:36:25;2.40;;;2.20;;
12768;SDS011;6448;48.916;8.990;2023-07-09T03:37:27;2.95;;;2.20;;
12768;SDS011;6448;48.916;8.990;2023-07-09T03:38:28;2.63;;;2.42;;
12768;SDS011;6448;48.916;8.990;2023-07-09T03:39:29;2.35;;;2.15;;
12768;SDS011;6448;48.916;8.990;2023-07-09T03:40:32;2.28;;;2.08;;
12768;SDS011;6448;48.916;8.990;2023-07-09T03:41:34;2.30;;;2.10;;
12768;SDS011;6448;48.916;8.990;2023-07-09T03:42:35;2.40;;;2.20;;
12768;SDS011;6448;48.916;8.990;2023-07-09T03:43:36;2.40;;;2.20;;
12768;SDS011;6448;48.916;8.990;2023-07-09T03:44:37;2.28;;;2.08;;
12768;SDS011;6448;48.916;8.990;2023-07-09T03:45:39;2.50;;;2.30;;
12768;SDS011;6448;48.916;8.990;2023-07-09T03:46:39;2.30;;;2.10;;
12768;SDS011;6448;48.916;8.990;2023-07-09T03:47:41;2.50;;;2.30;;
12768;SDS011;6448;48.916;8.990;2023-07-09T03:48:42;2.77;;;2.40;;
12768;SDS011;6448;48.916;8.990;2023-07-09T03:49:44;2.70;;;2.50;;
12768;SDS011;6448;48.916;8.990;2023-07-09T03:50:45;2.33;;;2.13;;
12768;SDS011;6448;48.916;8.990;2023-07-09T03:51:48;2.63;;;2.42;;
12768;SDS011;6448;48.916;8.990;2023-07-09T03:52:49;2.20;;;2.00;;
12768;SDS011;6448;48.916;8.990;2023-07-09T03:53:50;2.40;;;2.20;;
12768;SDS011;6448;48.916;8.990;2023-07-09T03:54:51;1.98;;;1.88;;
12768;SDS011;6448;48.916;8.990;2023-07-09T03:55:55;2.38;;;2.17;;
12768;SDS011;6448;48.916;8.990;2023-07-09T03:56:56;2.30;;;2.10;;
12768;SDS011;6448;48.916;8.990;2023-07-09T03:57:58;2.20;;;2.08;;
12768;SDS011;6448;48.916;8.990;2023-07-09T03:58:58;2.30;;;2.10;;
12768;SDS011;6448;48.916;8.990;2023-07-09T04:00:00;2.40;;;2.20;;
12768;SDS011;6448;48.916;8.990;2023-07-09T04:01:02;2.50;;;2.30;;
12768;SDS011;6448;48.916;8.990;2023-07-09T04:02:05;2.10;;;2.00;;
12768;SDS011;6448;48.916;8.990;2023-07-09T04:03:07;2.40;;;2.20;;
12768;SDS011;6448;48.916;8.990;2023-07-09T04:04:10;2.53;;;2.33;;
12768;SDS011;6448;48.916;8.990;2023-07-09T04:05:11;2.40;;;2.20;;
12768;SDS011;6448;48.916;8.990;2023-07-09T04:06:13;2.25;;;2.10;;
12768;SDS011;6448;48.916;8.990;2023-07-09T04:07:14;2.40;;;2.20;;
12768;SDS011;6448;48.916;8.990;2023-07-09T04:08:16;2.50;;;2.30;;
12768;SDS011;6448;48.916;8.990;2023-07-09T04:09:17;2.55;;;2.33;;
12768;SDS011;6448;48.916;8.990;2023-07-09T04:10:19;2.33;;;2.13;;
12768;SDS011;6448;48.916;8.990;2023-07-09T04:11:21;2.30;;;2.10;;
12768;SDS011;6448;48.916;8.990;2023-07-09T04:12:23;2.58;;;2.38;;
12768;SDS011;6448;48.916;8.990;2023-07-09T04:13:24;2.45;;;2.17;;
12768;SDS011;6448;48.916;8.990;2023-07-09T04:14:27;2.22;;;2.03;;
12768;SDS011;6448;48.916;8.990;2023-07-09T04:15:29;2.42;;;2.22;;
12768;SDS011;6448;48.916;8.990;2023-07-09T04:16:31;2.40;;;2.20;;
12768;SDS011;6448;48.916;8.990;2023-07-09T04:17:32;2.17;;;2.08;;
12768;SDS011;6448;48.916;8.990;2023-07-09T04:18:34;2.40;;;2.20;;
12768;SDS011;6448;48.916;8.990;2023-07-09T04:19:36;2.40;;;2.20;;
12768;SDS011;6448;48.916;8.990;2023-07-09T04:20:37;2.50;;;2.30;;
12768;SDS011;6448;48.916;8.990;2023-07-09T04:21:38;2.10;;;1.90;;
12768;SDS011;6448;48.916;8.990;2023-07-09T04:22:41;2.20;;;2.05;;
12768;SDS011;6448;48.916;8.990;2023-07-09T04:23:41;2.20;;;2.00;;
12768;SDS011;6448;48.916;8.990;2023-07-09T04:24:43;2.20;;;2.00;;
12768;SDS011;6448;48.916;8.990;2023-07-09T04:25:44;2.50;;;2.30;;
12768;SDS011;6448;48.916;8.990;2023-07-09T04:26:47;2.40;;;2.20;;
12768;SDS011;6448;48.916;8.990;2023-07-09T04:27:48;2.63;;;2.42;;
12768;SDS011;6448;48.916;8.990;2023-07-09T04:28:50;2.40;;;2.20;;
12768;SDS011;6448;48.916;8.990;2023-07-09T04:29:51;2.40;;;2.20;;
12768;SDS011;6448;48.916;8.990;2023-07-09T04:30:53;2.20;;;2.00;;
12768;SDS011;6448;48.916;8.990;2023-07-09T04:31:53;2.15;;;2.05;;
12768;SDS011;6448;48.916;8.990;2023-07-09T04:32:55;2.30;;;2.10;;
12768;SDS011;6448;48.916;8.990;2023-07-09T04:33:56;2.30;;;2.10;;
12768;SDS011;6448;48.916;8.990;2023-07-09T04:34:58;2.55;;;2.35;;
12768;SDS011;6448;48.916;8.990;2023-07-09T04:35:58;2.47;;;2.28;;
12768;SDS011;6448;48.916;8.990;2023-07-09T04:37:00;2.37;;;2.17;;
12768;SDS011;6448;48.916;8.990;2023-07-09T04:38:01;2.47;;;2.27;;
12768;SDS011;6448;48.916;8.990;2023-07-09T04:39:03;2.60;;;2.40;;
12768;SDS011;6448;48.916;8.990;2023-07-09T04:40:05;2.53;;;2.33;;
12768;SDS011;6448;48.916;8.990;2023-07-09T04:41:10;2.45;;;2.25;;
12768;SDS011;6448;48.916;8.990;2023-07-09T04:42:13;2.33;;;2.20;;
12768;SDS011;6448;48.916;8.990;2023-07-09T04:43:15;2.58;;;2.38;;
12768;SDS011;6448;48.916;8.990;2023-07-09T04:44:17;2.53;;;2.33;;
12768;SDS011;6448;48.916;8.990;2023-07-09T04:45:17;2.50;;;2.30;;
12768;SDS011;6448;48.916;8.990;2023-07-09T04:46:19;2.50;;;2.30;;
12768;SDS011;6448;48.916;8.990;2023-07-09T04:47:20;2.40;;;2.20;;
12768;SDS011;6448;48.916;8.990;2023-07-09T04:48:21;2.63;;;2.40;;
12768;SDS011;6448;48.916;8.990;2023-07-09T04:49:23;2.40;;;2.20;;
12768;SDS011;6448;48.916;8.990;2023-07-09T04:50:24;3.13;;;2.40;;
12768;SDS011;6448;48.916;8.990;2023-07-09T04:51:25;2.95;;;2.53;;
12768;SDS011;6448;48.916;8.990;2023-07-09T04:52:29;2.78;;;2.58;;
12768;SDS011;6448;48.916;8.990;2023-07-09T04:53:31;2.50;;;2.30;;
12768;SDS011;6448;48.916;8.990;2023-07-09T04:54:32;2.70;;;2.50;;
12768;SDS011;6448;48.916;8.990;2023-07-09T04:55:34;2.70;;;2.50;;
12768;SDS011;6448;48.916;8.990;2023-07-09T04:56:35;2.75;;;2.55;;
12768;SDS011;6448;48.916;8.990;2023-07-09T04:57:39;2.83;;;2.63;;
12768;SDS011;6448;48.916;8.990;2023-07-09T04:58:39;2.42;;;2.22;;
12768;SDS011;6448;48.916;8.990;2023-07-09T04:59:41;2.30;;;2.10;;
12768;SDS011;6448;48.916;8.990;2023-07-09T05:00:42;2.45;;;2.25;;
12768;SDS011;6448;48.916;8.990;2023-07-09T05:01:44;2.60;;;2.40;;
12768;SDS011;6448;48.916;8.990;2023-07-09T05:02:45;2.72;;;2.50;;
12768;SDS011;6448;48.916;8.990;2023-07-09T05:03:46;2.53;;;2.33;;
12768;SDS011;6448;48.916;8.990;2023-07-09T05:04:47;2.40;;;2.20;;
12768;SDS011;6448;48.916;8.990;2023-07-09T05:05:49;2.95;;;2.65;;
12768;SDS011;6448;48.916;8.990;2023-07-09T05:06:50;2.50;;;2.30;;
12768;SDS011;6448;48.916;8.990;2023-07-09T05:07:52;2.50;;;2.30;;
12768;SDS011;6448;48.916;8.990;2023-07-09T05:08:52;2.42;;;2.22;;
12768;SDS011;6448;48.916;8.990;2023-07-09T05:09:54;2.83;;;2.38;;
12768;SDS011;6448;48.916;8.990;2023-07-09T05:10:56;2.60;;;2.40;;
12768;SDS011;6448;48.916;8.990;2023-07-09T05:11:59;2.80;;;2.60;;
12768;SDS011;6448;48.916;8.990;2023-07-09T05:13:01;2.60;;;2.40;;
12768;SDS011;6448;48.916;8.990;2023-07-09T05:14:03;2.58;;;2.38;;
12768;SDS011;6448;48.916;8.990;2023-07-09T05:15:04;2.50;;;2.30;;
12768;SDS011;6448;48.916;8.990;2023-07-09T05:16:06;2.65;;;2.45;;
12768;SDS011;6448;48.916;8.990;2023-07-09T05:17:07;2.60;;;2.40;;
12768;SDS011;6448;48.916;8.990;2023-07-09T05:18:09;2.72;;;2.38;;
12768;SDS011;6448;48.916;8.990;2023-07-09T05:19:10;3.05;;;2.65;;
12768;SDS011;6448;48.916;8.990;2023-07-09T05:20:11;2.70;;;2.50;;
12768;SDS011;6448;48.916;8.990;2023-07-09T05:21:13;2.60;;;2.40;;
12768;SDS011;6448;48.916;8.990;2023-07-09T05:22:14;2.50;;;2.30;;
12768;SDS011;6448;48.916;8.990;2023-07-09T05:23:16;2.70;;;2.40;;
12768;SDS011;6448;48.916;8.990;2023-07-09T05:24:17;2.80;;;2.60;;
12768;SDS011;6448;48.916;8.990;2023-07-09T05:25:18;2.70;;;2.50;;
12768;SDS011;6448;48.916;8.990;2023-07-09T05:26:19;2.70;;;2.50;;
12768;SDS011;6448;48.916;8.990;2023-07-09T05:27:21;2.60;;;2.40;;
12768;SDS011;6448;48.916;8.990;2023-07-09T05:28:23;2.92;;;2.70;;
12768;SDS011;6448;48.916;8.990;2023-07-09T05:29:25;2.95;;;2.65;;
12768;SDS011;6448;48.916;8.990;2023-07-09T05:30:26;2.50;;;2.30;;
12768;SDS011;6448;48.916;8.990;2023-07-09T05:31:28;2.85;;;2.58;;
12768;SDS011;6448;48.916;8.990;2023-07-09T05:32:29;2.72;;;2.50;;
12768;SDS011;6448;48.916;8.990;2023-07-09T05:33:31;2.67;;;2.47;;
12768;SDS011;6448;48.916;8.990;2023-07-09T05:34:32;2.67;;;2.47;;
12768;SDS011;6448;48.916;8.990;2023-07-09T05:35:33;2.58;;;2.38;;
12768;SDS011;6448;48.916;8.990;2023-07-09T05:36:34;2.77;;;2.50;;
12768;SDS011;6448;48.916;8.990;2023-07-09T05:37:36;2.85;;;2.65;;
12768;SDS011;6448;48.916;8.990;2023-07-09T05:38:37;2.63;;;2.42;;
12768;SDS011;6448;48.916;8.990;2023-07-09T05:39:38;3.27;;;2.73;;
12768;SDS011;6448;48.916;8.990;2023-07-09T05:40:40;2.75;;;2.55;;
12768;SDS011;6448;48.916;8.990;2023-07-09T05:41:41;2.67;;;2.47;;
12768;SDS011;6448;48.916;8.990;2023-07-09T05:42:43;2.78;;;2.58;;
12768;SDS011;6448;48.916;8.990;2023-07-09T05:43:45;3.00;;;2.70;;
12768;SDS011;6448;48.916;8.990;2023-07-09T05:44:47;2.80;;;2.50;;
12768;SDS011;6448;48.916;8.990;2023-07-09T05:45:48;2.60;;;2.40;;
12768;SDS011;6448;48.916;8.990;2023-07-09T05:46:50;2.80;;;2.60;;
12768;SDS011;6448;48.916;8.990;2023-07-09T05:47:50;4.63;;;2.65;;
12768;SDS011;6448;48.916;8.990;2023-07-09T05:48:52;2.75;;;2.55;;
12768;SDS011;6448;48.916;8.990;2023-07-09T05:49:53;2.90;;;2.70;;
12768;SDS011;6448;48.916;8.990;2023-07-09T05:50:55;2.80;;;2.60;;
12768;SDS011;6448;48.916;8.990;2023-07-09T05:51:55;3.00;;;2.70;;
12768;SDS011;6448;48.916;8.990;2023-07-09T05:52:57;3.28;;;2.83;;
12768;SDS011;6448;48.916;8.990;2023-07-09T05:53:58;2.97;;;2.67;;
12768;SDS011;6448;48.916;8.990;2023-07-09T05:55:00;3.03;;;2.70;;
12768;SDS011;6448;48.916;8.990;2023-07-09T05:56:00;2.80;;;2.50;;
12768;SDS011;6448;48.916;8.990;2023-07-09T05:57:02;3.72;;;2.92;;
12768;SDS011;6448;48.916;8.990;2023-07-09T05:58:03;2.97;;;2.72;;
12768;SDS011;6448;48.916;8.990;2023-07-09T05:59:06;3.10;;;2.80;;
12768;SDS011;6448;48.916;8.990;2023-07-09T06:00:08;2.97;;;2.67;;
12768;SDS011;6448;48.916;8.990;2023-07-09T06:01:13;3.33;;;2.70;;
12768;SDS011;6448;48.916;8.990;2023-07-09T06:02:15;2.90;;;2.60;;
12768;SDS011;6448;48.916;8.990;2023-07-09T06:03:19;3.53;;;2.80;;
12768;SDS011;6448;48.916;8.990;2023-07-09T06:04:21;2.85;;;2.50;;
12768;SDS011;6448;48.916;8.990;2023-07-09T06:05:25;3.05;;;2.65;;
12768;SDS011;6448;48.916;8.990;2023-07-09T06:06:25;2.85;;;2.65;;
12768;SDS011;6448;48.916;8.990;2023-07-09T06:07:28;3.83;;;2.70;;
12768;SDS011;6448;48.916;8.990;2023-07-09T06:08:29;2.90;;;2.60;;
12768;SDS011;6448;48.916;8.990;2023-07-09T06:09:30;2.93;;;2.60;;
12768;SDS011;6448;48.916;8.990;2023-07-09T06:10:31;2.80;;;2.60;;
12768;SDS011;6448;48.916;8.990;2023-07-09T06:11:33;2.90;;;2.70;;
12768;SDS011;6448;48.916;8.990;2023-07-09T06:12:34;2.97;;;2.67;;
12768;SDS011;6448;48.916;8.990;2023-07-09T06:13:36;3.03;;;2.72;;
12768;SDS011;6448;48.916;8.990;2023-07-09T06:14:38;3.00;;;2.80;;
12768;SDS011;6448;48.916;8.990;2023-07-09T06:15:40;3.22;;;2.92;;
12768;SDS011;6448;48.916;8.990;2023-07-09T06:16:41;2.92;;;2.67;;
12768;SDS011;6448;48.916;8.990;2023-07-09T06:17:43;3.08;;;2.80;;
12768;SDS011;6448;48.916;8.990;2023-07-09T06:18:44;3.10;;;2.80;;
12768;SDS011;6448;48.916;8.990;2023-07-09T06:19:46;4.32;;;3.00;;
12768;SDS011;6448;48.916;8.990;2023-07-09T06:20:47;3.20;;;2.90;;
12768;SDS011;6448;48.916;8.990;2023-07-09T06:21:50;2.90;;;2.70;;
12768;SDS011;6448;48.916;8.990;2023-07-09T06:22:51;3.20;;;2.90;;
12768;SDS011;6448;48.916;8.990;2023-07-09T06:23:52;3.22;;;2.78;;
12768;SDS011;6448;48.916;8.990;2023-07-09T06:24:53;3.25;;;2.95;;
12768;SDS011;6448;48.916;8.990;2023-07-09T06:25:55;3.15;;;2.85;;